createdAt,value
2023-04-23T00:02:17.068Z,38.83
2023-04-23T00:04:51.938Z,38.90
2023-04-23T00:07:22.311Z,38.65
2023-04-23T00:09:52.811Z,38.65
2023-04-23T00:12:21.080Z,38.58
2023-04-23T00:14:48.400Z,38.87
2023-04-23T00:17:15.363Z,38.70
2023-04-23T00:19:42.346Z,38.46
2023-04-23T00:22:09.330Z,38.89
2023-04-23T00:24:38.934Z,38.65
2023-04-23T00:27:06.577Z,38.86
2023-04-23T00:29:33.539Z,38.52
2023-04-23T00:32:00.746Z,38.93
2023-04-23T00:34:27.729Z,39.25
2023-04-23T00:36:55.153Z,39.35
2023-04-23T00:39:22.477Z,39.21
2023-04-23T00:41:50.516Z,39.04
2023-04-23T00:44:17.648Z,38.91
2023-04-23T00:46:45.177Z,39.60
2023-04-23T00:49:13.894Z,39.36
2023-04-23T00:51:40.819Z,39.02
2023-04-23T00:54:07.814Z,39.08
2023-04-23T00:56:35.214Z,39.13
2023-04-23T00:59:03.359Z,39.49
2023-04-23T01:01:30.389Z,39.59
2023-04-23T01:03:57.984Z,39.48
2023-04-23T01:06:25.233Z,40.06
2023-04-23T01:08:52.195Z,40.05
2023-04-23T01:11:19.665Z,39.96
2023-04-23T01:13:46.569Z,39.90
2023-04-23T01:16:13.480Z,40.55
2023-04-23T01:18:41.103Z,39.96
2023-04-23T01:21:11.650Z,40.36
2023-04-23T01:23:39.004Z,40.30
2023-04-23T01:26:06.279Z,40.43
2023-04-23T01:28:33.878Z,40.27
2023-04-23T01:31:01.590Z,40.70
2023-04-23T01:33:32.010Z,40.94
2023-04-23T01:36:00.204Z,40.71
2023-04-23T01:38:30.892Z,41.06
2023-04-23T01:40:57.861Z,41.02
2023-04-23T01:43:25.471Z,40.98
2023-04-23T01:45:53.227Z,40.90
2023-04-23T01:48:20.809Z,41.21
2023-04-23T01:50:48.504Z,41.14
2023-04-23T01:53:15.584Z,41.31
2023-04-23T01:55:46.118Z,41.16
2023-04-23T01:58:13.427Z,41.45
2023-04-23T02:00:40.481Z,41.13
2023-04-23T02:03:07.523Z,41.32
2023-04-23T02:05:36.048Z,41.54
2023-04-23T02:08:03.618Z,41.19
2023-04-23T02:10:31.745Z,41.13
2023-04-23T02:12:59.344Z,41.40
2023-04-23T02:15:26.276Z,41.17
2023-04-23T02:17:54.002Z,41.51
2023-04-23T02:20:21.823Z,41.12
2023-04-23T02:22:50.918Z,40.96
2023-04-23T02:25:18.876Z,41.46
2023-04-23T02:27:45.804Z,41.13
2023-04-23T02:30:13.032Z,41.44
2023-04-23T02:32:40.269Z,41.13
2023-04-23T02:35:09.348Z,41.38
2023-04-23T02:37:37.311Z,41.16
2023-04-23T02:40:08.124Z,41.22
2023-04-23T02:42:35.111Z,41.09
2023-04-23T02:45:02.004Z,41.38
2023-04-23T02:47:30.173Z,41.69
2023-04-23T02:49:57.680Z,41.17
2023-04-23T02:52:24.731Z,41.02
2023-04-23T02:54:51.827Z,41.35
2023-04-23T02:57:19.190Z,41.23
2023-04-23T02:59:46.338Z,41.02
2023-04-23T03:02:14.038Z,41.44
2023-04-23T03:04:41.429Z,41.47
2023-04-23T03:07:09.399Z,40.96
2023-04-23T03:09:36.261Z,41.23
2023-04-23T03:12:03.154Z,41.13
2023-04-23T03:14:30.188Z,41.37
2023-04-23T03:16:57.410Z,41.42
2023-04-23T03:19:24.424Z,40.88
2023-04-23T03:21:51.457Z,41.49
2023-04-23T03:24:18.626Z,41.56
2023-04-23T03:26:45.674Z,41.58
2023-04-23T03:29:12.620Z,41.82
2023-04-23T03:31:39.707Z,41.81
2023-04-23T03:34:09.154Z,41.62
2023-04-23T03:36:37.660Z,41.27
2023-04-23T03:39:04.594Z,41.43
2023-04-23T03:41:44.200Z,41.83
2023-04-23T03:44:12.941Z,41.96
2023-04-23T03:46:42.780Z,42.28
2023-04-23T03:49:10.316Z,42.12
2023-04-23T03:51:37.472Z,42.17
2023-04-23T03:54:04.601Z,41.88
2023-04-23T03:56:41.438Z,42.13
2023-04-23T03:59:16.015Z,42.24
2023-04-23T04:01:44.489Z,42.38
2023-04-23T04:04:11.703Z,42.13
2023-04-23T04:06:38.864Z,42.03
2023-04-23T04:09:06.161Z,42.58
2023-04-23T04:11:33.102Z,42.63
2023-04-23T04:14:00.005Z,42.68
2023-04-23T04:16:28.019Z,42.75
2023-04-23T04:18:56.621Z,42.28
2023-04-23T04:21:23.672Z,42.92
2023-04-23T04:23:51.124Z,42.88
2023-04-23T04:26:18.703Z,42.71
2023-04-23T04:28:45.629Z,42.97
2023-04-23T04:31:15.976Z,42.80
2023-04-23T04:33:43.328Z,42.75
2023-04-23T04:36:10.236Z,43.38
2023-04-23T04:38:39.723Z,43.03
2023-04-23T04:41:07.696Z,43.19
2023-04-23T04:43:34.877Z,43.47
2023-04-23T04:46:01.948Z,43.27
2023-04-23T04:48:28.879Z,43.63
2023-04-23T04:50:55.770Z,43.71
2023-04-23T04:53:22.778Z,43.43
2023-04-23T04:55:49.862Z,43.53
2023-04-23T04:58:16.931Z,43.94
2023-04-23T05:00:44.529Z,43.64
2023-04-23T05:03:14.316Z,43.83
2023-04-23T05:05:41.485Z,43.98
2023-04-23T05:08:08.746Z,44.27
2023-04-23T05:10:35.644Z,44.41
2023-04-23T05:13:02.544Z,44.41
2023-04-23T05:15:29.517Z,44.24
2023-04-23T05:17:56.593Z,44.50
2023-04-23T05:20:23.556Z,44.76
2023-04-23T05:22:50.476Z,44.51
2023-04-23T05:25:17.367Z,44.50
2023-04-23T05:27:44.277Z,44.91
2023-04-23T05:30:11.556Z,45.00
2023-04-23T05:32:39.305Z,45.29
2023-04-23T05:35:07.178Z,44.98
2023-04-23T05:37:34.141Z,45.35
2023-04-23T05:40:02.560Z,45.53
2023-04-23T05:42:29.533Z,45.91
2023-04-23T05:44:56.437Z,45.52
2023-04-23T05:47:23.375Z,46.13
2023-04-23T05:49:50.267Z,45.93
2023-04-23T05:52:17.755Z,46.32
2023-04-23T05:54:44.891Z,46.24
2023-04-23T05:57:12.636Z,46.59
2023-04-23T05:59:39.496Z,46.44
2023-04-23T06:02:07.504Z,46.77
2023-04-23T06:04:34.619Z,47.20
2023-04-23T06:07:01.776Z,46.77
2023-04-23T06:09:28.677Z,47.05
2023-04-23T06:11:55.730Z,46.88
2023-04-23T06:14:22.623Z,47.11
2023-04-23T06:16:49.545Z,47.22
2023-04-23T06:19:16.813Z,47.63
2023-04-23T06:21:43.723Z,47.45
2023-04-23T06:24:10.634Z,48.01
2023-04-23T06:26:37.531Z,48.22
2023-04-23T06:29:12.050Z,48.21
2023-04-23T06:31:49.974Z,48.22
2023-04-23T06:34:16.872Z,48.62
2023-04-23T06:36:43.873Z,49.02
2023-04-23T06:39:10.733Z,49.12
2023-04-23T06:41:38.149Z,49.35
2023-04-23T06:44:21.818Z,49.26
2023-04-23T06:46:54.421Z,49.14
2023-04-23T06:49:21.352Z,49.86
2023-04-23T06:51:48.385Z,50.03
2023-04-23T06:54:15.276Z,50.37
2023-04-23T06:56:42.179Z,50.46
2023-04-23T06:59:09.058Z,50.04
2023-04-23T07:01:44.628Z,50.15
2023-04-23T07:04:11.540Z,50.45
2023-04-23T07:06:38.430Z,50.86
2023-04-23T07:09:05.913Z,50.93
2023-04-23T07:11:34.811Z,51.50
2023-04-23T07:14:01.739Z,51.54
2023-04-23T07:16:32.179Z,51.69
2023-04-23T07:19:01.179Z,51.61
2023-04-23T07:21:28.814Z,51.78
2023-04-23T07:23:59.845Z,52.38
2023-04-23T07:26:27.818Z,52.39
2023-04-23T07:28:54.744Z,52.25
2023-04-23T07:31:22.266Z,52.37
2023-04-23T07:33:49.358Z,52.71
2023-04-23T07:36:16.298Z,53.43
2023-04-23T07:38:43.277Z,53.65
2023-04-23T07:41:10.354Z,53.36
2023-04-23T07:43:37.242Z,53.66
2023-04-23T07:46:05.061Z,54.59
2023-04-23T07:48:32.057Z,54.31
2023-04-23T07:50:59.041Z,54.35
2023-04-23T07:53:26.175Z,54.75
2023-04-23T07:55:53.102Z,54.44
2023-04-23T07:58:20.002Z,54.56
2023-04-23T08:00:46.931Z,54.74
2023-04-23T08:03:13.917Z,54.82
2023-04-23T08:05:41.431Z,54.82
2023-04-23T08:08:09.048Z,54.88
2023-04-23T08:10:36.341Z,55.37
2023-04-23T08:13:03.247Z,55.61
2023-04-23T08:15:30.373Z,55.08
2023-04-23T08:17:57.327Z,55.45
2023-04-23T08:20:24.265Z,55.13
2023-04-23T08:22:53.561Z,55.07
2023-04-23T08:25:21.100Z,55.48
2023-04-23T08:27:48.014Z,55.52
2023-04-23T08:30:15.089Z,55.82
2023-04-23T08:32:42.148Z,55.65
2023-04-23T08:35:09.531Z,55.65
2023-04-23T08:37:36.538Z,55.46
2023-04-23T08:40:05.048Z,55.88
2023-04-23T08:43:02.134Z,56.27
2023-04-23T08:45:30.872Z,56.29
2023-04-23T08:48:02.446Z,56.28
2023-04-23T08:50:30.963Z,56.67
2023-04-23T08:52:58.464Z,56.75
2023-04-23T08:55:25.834Z,56.42
2023-04-23T08:57:53.004Z,57.07
2023-04-23T09:00:23.200Z,57.17
2023-04-23T09:02:50.642Z,57.15
2023-04-23T09:05:17.847Z,57.41
2023-04-23T09:07:45.253Z,57.84
2023-04-23T09:10:16.253Z,58.46
2023-04-23T09:12:44.986Z,58.48
2023-04-23T09:15:13.818Z,59.24
2023-04-23T09:17:45.958Z,59.04
2023-04-23T09:20:14.863Z,58.93
2023-04-23T09:22:49.326Z,59.42
2023-04-23T09:25:19.729Z,59.24
2023-04-23T09:27:48.230Z,59.58
2023-04-23T09:30:16.404Z,59.19
2023-04-23T09:32:49.475Z,59.63
2023-04-23T09:35:20.119Z,59.39
2023-04-23T09:37:51.068Z,59.27
2023-04-23T09:40:22.731Z,58.82
2023-04-23T09:42:53.093Z,58.67
2023-04-23T09:45:20.734Z,58.44
2023-04-23T09:47:56.044Z,59.15
2023-04-23T09:50:40.580Z,59.63
2023-04-23T09:53:09.659Z,59.05
2023-04-23T09:55:39.744Z,59.42
2023-04-23T09:58:15.680Z,59.44
2023-04-23T10:00:43.054Z,59.08
2023-04-23T10:03:10.960Z,58.99
2023-04-23T10:05:59.813Z,58.49
2023-04-23T10:08:28.777Z,58.66
2023-04-23T10:11:06.636Z,58.57
2023-04-23T10:13:37.594Z,58.54
2023-04-23T10:16:18.620Z,58.09
2023-04-23T10:18:52.050Z,57.96
2023-04-23T10:21:20.844Z,57.78
2023-04-23T10:23:50.418Z,57.44
2023-04-23T10:26:19.518Z,57.22
2023-04-23T10:28:49.026Z,57.56
2023-04-23T10:31:16.584Z,56.75
2023-04-23T10:33:55.911Z,56.39
2023-04-23T10:36:25.892Z,56.27
2023-04-23T10:38:58.817Z,56.01
2023-04-23T10:41:34.952Z,56.73
2023-04-23T10:44:03.103Z,56.26
2023-04-23T10:46:31.841Z,55.89
2023-04-23T10:49:16.763Z,55.75
2023-04-23T10:54:20.375Z,55.39
2023-04-23T10:57:00.165Z,55.63
2023-04-23T10:59:29.729Z,55.79
2023-04-23T11:01:59.622Z,55.83
2023-04-23T11:04:29.930Z,55.18
2023-04-23T11:07:05.577Z,55.41
2023-04-23T11:09:44.285Z,56.00
2023-04-23T11:12:24.789Z,55.59
2023-04-23T11:14:56.977Z,54.97
2023-04-23T11:17:32.903Z,54.37
2023-04-23T11:20:14.962Z,54.92
2023-04-23T11:22:46.631Z,54.80
2023-04-23T11:25:22.928Z,54.51
2023-04-23T11:27:51.705Z,54.99
2023-04-23T11:30:25.271Z,54.77
2023-04-23T11:32:54.824Z,53.93
2023-04-23T11:35:28.529Z,54.35
2023-04-23T11:37:56.386Z,53.98
2023-04-23T11:40:24.233Z,54.56
2023-04-23T11:42:57.437Z,54.29
2023-04-23T11:45:26.490Z,54.17
2023-04-23T11:47:56.347Z,53.16
2023-04-23T11:50:33.602Z,52.67
2023-04-23T11:53:10.109Z,52.63
2023-04-23T11:55:38.213Z,52.73
2023-04-23T11:58:05.786Z,52.54
2023-04-23T12:00:32.720Z,52.32
2023-04-23T12:03:01.965Z,52.39
2023-04-23T12:05:37.770Z,52.53
2023-04-23T12:08:10.132Z,52.14
2023-04-23T12:11:06.142Z,52.08
2023-04-23T12:13:33.786Z,52.49
2023-04-23T12:16:05.332Z,52.25
2023-04-23T12:18:42.137Z,52.00
2023-04-23T12:21:11.309Z,51.47
2023-04-23T12:23:40.357Z,51.48
2023-04-23T12:26:15.825Z,51.64
2023-04-23T12:28:59.403Z,52.02
2023-04-23T12:31:29.133Z,51.79
2023-04-23T12:34:08.275Z,51.26
2023-04-23T12:36:40.813Z,50.63
2023-04-23T12:39:20.597Z,50.37
2023-04-23T12:41:49.901Z,50.31
2023-04-23T12:44:16.775Z,49.36
2023-04-23T12:46:43.673Z,48.54
2023-04-23T12:49:10.595Z,48.15
2023-04-23T12:51:37.705Z,48.85
2023-04-23T12:54:04.785Z,48.65
2023-04-23T12:56:31.696Z,48.77
2023-04-23T12:59:01.816Z,48.42
2023-04-23T13:01:29.144Z,48.73
2023-04-23T13:03:56.831Z,48.77
2023-04-23T13:06:23.990Z,48.68
2023-04-23T13:08:50.991Z,48.38
2023-04-23T13:11:17.879Z,48.65
2023-04-23T13:13:44.809Z,47.73
2023-04-23T13:16:11.838Z,47.68
2023-04-23T13:18:38.762Z,46.92
2023-04-23T13:21:05.937Z,47.04
2023-04-23T13:23:32.821Z,46.34
2023-04-23T13:25:59.709Z,45.12
2023-04-23T13:28:26.934Z,44.60
2023-04-23T13:30:53.986Z,43.13
2023-04-23T13:33:21.193Z,42.97
2023-04-23T13:35:48.163Z,43.96
2023-04-23T13:38:15.093Z,43.40
2023-04-23T13:40:41.984Z,42.63
2023-04-23T13:43:08.884Z,43.00
2023-04-23T13:45:35.944Z,41.91
2023-04-23T13:48:02.942Z,41.55
2023-04-23T13:50:29.874Z,42.10
2023-04-23T13:52:56.767Z,42.05
2023-04-23T13:55:23.652Z,42.10
2023-04-23T13:57:50.519Z,41.98
2023-04-23T14:00:18.120Z,41.56
2023-04-23T14:02:45.070Z,42.33
2023-04-23T14:05:12.144Z,42.55
2023-04-23T14:07:48.086Z,43.01
2023-04-23T14:10:15.539Z,43.39
2023-04-23T14:12:42.430Z,43.52
2023-04-23T14:15:09.955Z,43.86
2023-04-23T14:17:39.188Z,44.09
2023-04-23T14:20:07.672Z,43.97
2023-04-23T14:22:34.599Z,43.50
2023-04-23T14:25:10.912Z,43.58
2023-04-23T14:27:50.477Z,43.63
2023-04-23T14:30:21.547Z,43.50
2023-04-23T14:32:50.010Z,42.86
2023-04-23T14:35:17.480Z,43.24
2023-04-23T14:37:45.582Z,43.38
2023-04-23T14:40:15.745Z,43.48
2023-04-23T14:42:42.826Z,43.37
2023-04-23T14:45:09.954Z,43.37
2023-04-23T14:47:36.866Z,43.56
2023-04-23T14:50:04.234Z,43.66
2023-04-23T14:52:31.612Z,43.75
2023-04-23T14:54:58.517Z,44.08
2023-04-23T14:57:25.411Z,44.25
2023-04-23T14:59:52.328Z,43.82
2023-04-23T15:02:19.312Z,43.91
2023-04-23T15:04:46.414Z,44.04
2023-04-23T15:07:13.295Z,43.10
2023-04-23T15:09:40.440Z,43.07
2023-04-23T15:12:43.756Z,43.11
2023-04-23T15:15:43.109Z,43.32
2023-04-23T15:18:14.228Z,43.62
2023-04-23T15:20:42.166Z,43.39
2023-04-23T15:23:10.105Z,43.10
2023-04-23T15:25:37.385Z,43.11
2023-04-23T15:28:05.585Z,42.64
2023-04-23T15:30:32.652Z,42.56
2023-04-23T15:32:59.615Z,42.75
2023-04-23T15:35:28.031Z,43.00
2023-04-23T15:37:54.944Z,42.59
2023-04-23T15:40:21.833Z,42.29
2023-04-23T15:42:50.043Z,42.31
2023-04-23T15:45:17.243Z,42.31
2023-04-23T15:47:44.497Z,42.10
2023-04-23T15:50:11.821Z,41.65
2023-04-23T15:52:40.539Z,41.35
2023-04-23T15:55:08.088Z,40.78
2023-04-23T15:57:34.977Z,41.17
2023-04-23T16:00:01.904Z,40.79
2023-04-23T16:02:39.030Z,40.50
2023-04-23T16:05:06.196Z,40.74
2023-04-23T16:07:33.109Z,41.00
2023-04-23T16:10:00.040Z,40.76
2023-04-23T16:12:26.918Z,40.50
2023-04-23T16:14:53.928Z,40.46
2023-04-23T16:17:20.842Z,40.39
2023-04-23T16:19:47.976Z,40.23
2023-04-23T16:22:16.210Z,40.39
2023-04-23T16:24:43.129Z,40.42
2023-04-23T16:27:10.957Z,40.28
2023-04-23T16:29:38.732Z,40.18
2023-04-23T16:32:07.297Z,40.17
2023-04-23T16:34:34.492Z,40.44
2023-04-23T16:37:01.400Z,40.23
2023-04-23T16:39:28.314Z,40.24
2023-04-23T16:41:55.194Z,40.38
2023-04-23T16:44:22.080Z,40.74
2023-04-23T16:46:48.992Z,40.70
2023-04-23T16:49:15.966Z,40.90
2023-04-23T16:51:42.828Z,40.69
2023-04-23T16:54:09.854Z,40.40
2023-04-23T16:56:37.332Z,40.44
2023-04-23T16:59:04.895Z,40.51
2023-04-23T17:01:31.888Z,40.69
2023-04-23T17:03:59.070Z,40.76
2023-04-23T17:06:32.998Z,41.04
2023-04-23T17:09:03.139Z,40.37
2023-04-23T17:11:31.027Z,40.68
2023-04-23T17:13:58.297Z,40.83
2023-04-23T17:16:26.754Z,40.78
2023-04-23T17:18:54.937Z,41.08
2023-04-23T17:21:22.724Z,40.88
2023-04-23T17:23:49.753Z,41.00
2023-04-23T17:26:16.702Z,40.92
2023-04-23T17:28:43.632Z,40.98
2023-04-23T17:31:11.257Z,41.00
2023-04-23T17:33:38.742Z,41.34
2023-04-23T17:36:05.854Z,40.95
2023-04-23T17:38:32.738Z,40.96
2023-04-23T17:40:59.981Z,40.87
2023-04-23T17:43:27.346Z,41.13
2023-04-23T17:45:54.479Z,41.08
2023-04-23T17:48:23.001Z,41.27
2023-04-23T17:50:50.186Z,41.27
2023-04-23T17:53:17.148Z,41.61
2023-04-23T17:55:44.030Z,42.25
2023-04-23T17:58:10.905Z,42.67
2023-04-23T18:00:43.119Z,42.63
2023-04-23T18:03:11.657Z,43.14
2023-04-23T18:05:39.181Z,43.13
2023-04-23T18:08:07.453Z,43.13
2023-04-23T18:10:34.386Z,43.09
2023-04-23T18:13:03.341Z,43.51
2023-04-23T18:15:32.298Z,44.00
2023-04-23T18:17:59.715Z,43.68
2023-04-23T18:20:26.955Z,44.00
2023-04-23T18:22:56.628Z,43.89
2023-04-23T18:25:25.245Z,44.02
2023-04-23T18:27:52.177Z,44.08
2023-04-23T18:30:23.104Z,44.62
2023-04-23T18:33:00.807Z,44.51
2023-04-23T18:35:27.752Z,44.54
2023-04-23T18:38:02.664Z,45.20
2023-04-23T18:40:29.663Z,45.05
2023-04-23T18:42:56.756Z,45.41
2023-04-23T18:45:23.855Z,45.39
2023-04-23T18:47:57.692Z,46.04
2023-04-23T18:50:57.887Z,46.10
2023-04-23T18:53:24.759Z,46.19
2023-04-23T18:55:51.643Z,46.56
2023-04-23T18:58:18.513Z,46.79
2023-04-23T19:00:45.485Z,46.75
2023-04-23T19:03:25.334Z,46.71
2023-04-23T19:05:52.873Z,46.70
2023-04-23T19:08:19.766Z,46.46
2023-04-23T19:10:46.728Z,46.99
2023-04-23T19:13:13.605Z,46.75
2023-04-23T19:15:40.617Z,47.08
2023-04-23T19:18:07.564Z,47.50
2023-04-23T19:20:34.496Z,47.80
2023-04-23T19:23:01.385Z,47.96
2023-04-23T19:25:28.271Z,47.99
2023-04-23T19:27:55.142Z,47.65
2023-04-23T19:30:22.023Z,48.29
2023-04-23T19:32:48.986Z,48.24
2023-04-23T19:35:15.940Z,48.31
2023-04-23T19:37:42.808Z,48.94
2023-04-23T19:40:10.723Z,48.96
2023-04-23T19:42:37.624Z,49.25
2023-04-23T19:45:04.685Z,49.41
2023-04-23T19:47:33.106Z,49.58
2023-04-23T19:50:00.065Z,49.57
2023-04-23T19:52:27.958Z,49.68
2023-04-23T19:54:54.866Z,50.12
2023-04-23T19:57:22.258Z,50.37
2023-04-23T19:59:49.465Z,50.55
2023-04-23T20:02:16.863Z,50.45
2023-04-23T20:04:44.049Z,50.50
2023-04-23T20:07:11.128Z,51.14
2023-04-23T20:09:38.130Z,51.35
2023-04-23T20:12:05.330Z,51.24
2023-04-23T20:14:32.230Z,51.48
2023-04-23T20:16:59.318Z,51.40
2023-04-23T20:19:26.245Z,51.48
2023-04-23T20:21:53.696Z,51.78
2023-04-23T20:24:23.210Z,52.11
2023-04-23T20:26:50.334Z,51.96
2023-04-23T20:29:17.239Z,51.85
2023-04-23T20:31:48.732Z,52.06
2023-04-23T20:34:18.878Z,52.41
2023-04-23T20:36:48.910Z,52.35
2023-04-23T20:39:16.778Z,52.57
2023-04-23T20:41:46.389Z,52.81
2023-04-23T20:44:13.302Z,53.05
2023-04-23T20:46:40.508Z,52.98
2023-04-23T20:49:07.417Z,53.16
2023-04-23T20:51:34.455Z,53.07
2023-04-23T20:54:02.222Z,53.16
2023-04-23T20:56:29.790Z,53.27
2023-04-23T20:58:59.885Z,53.08
2023-04-23T21:01:27.283Z,53.41
2023-04-23T21:03:54.743Z,53.42
2023-04-23T21:06:22.210Z,53.93
2023-04-23T21:08:49.334Z,53.84
2023-04-23T21:11:19.090Z,53.94
2023-04-23T21:13:46.923Z,54.00
2023-04-23T21:16:14.220Z,54.08
2023-04-23T21:18:41.921Z,54.06
2023-04-23T21:21:08.819Z,54.17
2023-04-23T21:23:36.259Z,54.36
2023-04-23T21:26:03.592Z,54.27
2023-04-23T21:28:31.430Z,54.43
2023-04-23T21:31:07.719Z,54.72
2023-04-23T21:33:34.647Z,54.57
2023-04-23T21:36:01.576Z,54.48
2023-04-23T21:38:28.518Z,54.83
2023-04-23T21:40:55.454Z,55.03
2023-04-23T21:43:24.305Z,55.24
2023-04-23T21:45:51.402Z,54.95
2023-04-23T21:48:18.412Z,55.19
2023-04-23T21:50:45.363Z,55.35
2023-04-23T21:53:13.082Z,55.23
2023-04-23T21:55:39.986Z,55.24
2023-04-23T21:58:17.337Z,55.29
2023-04-23T22:00:45.773Z,55.65
2023-04-23T22:03:14.665Z,55.70
2023-04-23T22:05:49.348Z,55.77
2023-04-23T22:08:17.204Z,55.83
2023-04-23T22:10:44.681Z,55.87
2023-04-23T22:13:14.269Z,55.85
2023-04-23T22:15:41.326Z,55.91
2023-04-23T22:18:08.610Z,55.90
2023-04-23T22:20:37.536Z,55.97
2023-04-23T22:23:04.470Z,56.11
2023-04-23T22:25:31.384Z,56.05
2023-04-23T22:27:58.489Z,55.75
2023-04-23T22:30:25.409Z,55.83
2023-04-23T22:32:52.312Z,56.17
2023-04-23T22:35:19.297Z,56.29
2023-04-23T22:37:46.219Z,56.20
2023-04-23T22:40:13.101Z,56.63
2023-04-23T22:42:39.965Z,56.45
2023-04-23T22:45:08.334Z,56.70
2023-04-23T22:47:35.234Z,56.77
2023-04-23T22:50:02.268Z,56.75
2023-04-23T22:52:29.140Z,56.99
2023-04-23T22:54:56.847Z,56.89
2023-04-23T22:57:24.456Z,56.87
2023-04-23T22:59:51.355Z,56.87
2023-04-23T23:02:18.415Z,56.65
2023-04-23T23:04:45.893Z,56.88
2023-04-23T23:07:12.976Z,56.88
2023-04-23T23:09:39.869Z,56.76
2023-04-23T23:12:06.738Z,56.73
2023-04-23T23:14:34.005Z,57.14
2023-04-23T23:17:00.856Z,57.18
2023-04-23T23:19:27.998Z,57.11
2023-04-23T23:21:55.032Z,57.29
2023-04-23T23:24:22.383Z,57.42
2023-04-23T23:26:50.353Z,57.45
2023-04-23T23:29:17.247Z,57.61
2023-04-23T23:31:44.250Z,57.42
2023-04-23T23:34:11.762Z,57.58
2023-04-23T23:36:38.709Z,57.88
2023-04-23T23:39:06.694Z,58.13
2023-04-23T23:41:33.882Z,58.39
2023-04-23T23:44:00.833Z,58.62
2023-04-23T23:46:27.983Z,59.03
2023-04-23T23:48:55.022Z,58.75
2023-04-23T23:51:21.916Z,58.89
2023-04-23T23:53:48.936Z,58.54
2023-04-23T23:56:15.855Z,58.50
2023-04-23T23:58:42.761Z,58.68
